Aérodrome :
LOGIN :

S'inscrire | Disclaimer

   EN    FR    IT 

 










Légende :    VFR   VFR Marginal   IFR   IFR Intensif   IFR Très Intensif
Visi : 
Plafond : 
>= 8 km
>= 3000ft
5 à 8 km
1000 à 3000 ft
1500m à 5 km
500 à 1000 ft
800 à 1500m
200 à 500 ft
< 800m
< 200 ft
Symboles :   Orages  Brouillard  Fortes neiges  Fortes précipitations  Vent > 20 kt
SIGMETs :   Divers  Orages  Givrage  Turbulence  Onde Orograph.  Cendres Volcan.






- Altitude de l'aérodrome : 59 ft
- Code IATA : TSF


LIPH - Treviso

DERNIER METAR :
  • 011120Z 03004KT 360V060 9999 SCT060 05/M01 Q1017

METARs EXPIRÉS :
  • 011050Z 03004KT 9999 SCT060 05/M02 Q1017
  • 011020Z 05006KT 9999 SCT060 05/M02 Q1018
  • 010950Z 04005KT 9999 FEW050 05/M02 Q1018
  • 010920Z VRB01KT 9999 FEW050 04/M01 Q1018
  • 010850Z VRB01KT 9999 FEW050 05/00 Q1018
  • 010820Z AUTO VRB02KT 9999 SCT047/// 03/M00 Q1019

TAF TAF LIPH
Valide du 01 à 06h jusqu'au 02 à 06h UTC


010500Z 0106/0206 VRB05KT 7000 NSC
PROB30
TEMPO 0106/0108 1500 BCFG
BECMG 0122/0201 4000 RA BKN020



MET'MAP, la Météo Aéronautique d'un coup d'oeil ! - Copyright ORBIFLY Décembre 2007 - Disclaimer

ORBIFLY MET'MAP TEAM :

Programmation & Développement : Alexandra Zaïnal
Sur une idée originale de : Baudouin d'Aumeries
Assistance à la programmation : Marc-Olivier Méhu
Soutien technique & logistique : Manuel Goepfert

Contact : metmap@orbifly.com




SOURCES & CREDITS :

   NOAA